createdAt,value
2023-04-13T00:00:33.394Z,0.4
2023-04-13T00:01:41.767Z,0.4
2023-04-13T00:02:50.323Z,0.2
2023-04-13T00:03:58.896Z,0.2
2023-04-13T00:05:06.932Z,0.2
2023-04-13T00:06:15.419Z,0.3
2023-04-13T00:07:23.732Z,0.3
2023-04-13T00:08:32.092Z,0.3
2023-04-13T00:09:40.603Z,0.3
2023-04-13T00:10:48.922Z,0.3
2023-04-13T00:11:57.232Z,0.3
2023-04-13T00:13:05.775Z,0.4
2023-04-13T00:14:14.098Z,0.4
2023-04-13T00:15:22.423Z,0.4
2023-04-13T00:16:30.992Z,0.3
2023-04-13T00:17:39.324Z,0.3
2023-04-13T00:18:47.612Z,0.3
2023-04-13T00:19:56.137Z,0.3
2023-04-13T00:21:04.467Z,0.3
2023-04-13T00:22:12.787Z,0.3
2023-04-13T00:23:21.320Z,0.3
2023-04-13T00:24:29.666Z,0.3
2023-04-13T00:25:37.972Z,0.3
2023-04-13T00:26:46.489Z,0.3
2023-04-13T00:27:54.829Z,0.3
2023-04-13T00:29:03.145Z,0.3
2023-04-13T00:30:11.686Z,0.3
2023-04-13T00:31:20.022Z,0.3
2023-04-13T00:32:28.323Z,0.3
2023-04-13T00:33:36.861Z,0.3
2023-04-13T00:34:45.190Z,0.3
2023-04-13T00:35:53.510Z,0.3
2023-04-13T00:37:02.026Z,0.5
2023-04-13T00:38:10.357Z,0.5
2023-04-13T00:39:18.683Z,0.5
2023-04-13T00:40:27.227Z,0.3
2023-04-13T00:41:35.518Z,0.3
2023-04-13T00:42:43.838Z,0.3
2023-04-13T00:43:52.386Z,0.5
2023-04-13T00:45:00.694Z,0.5
2023-04-13T00:46:09.120Z,0.5
2023-04-13T00:47:17.533Z,0.4
2023-04-13T00:48:25.863Z,0.4
2023-04-13T00:49:34.175Z,0.4
2023-04-13T00:50:42.705Z,0.7
2023-04-13T00:51:51.018Z,0.7
2023-04-13T00:52:59.338Z,0.7
2023-04-13T00:54:07.867Z,0.4
2023-04-13T00:55:16.189Z,0.4
2023-04-13T00:56:24.527Z,0.4
2023-04-13T00:57:33.024Z,0.3
2023-04-13T00:58:41.370Z,0.3
2023-04-13T00:59:49.692Z,0.3
2023-04-13T01:00:58.234Z,0.6
2023-04-13T01:02:06.692Z,0.6
2023-04-13T01:03:14.950Z,0.6
2023-04-13T01:04:23.437Z,0.5
2023-04-13T01:05:31.737Z,0.5
2023-04-13T01:06:40.061Z,0.5
2023-04-13T01:07:48.594Z,0.7
2023-04-13T01:08:56.904Z,0.7
2023-04-13T01:10:05.233Z,0.7
2023-04-13T01:11:13.763Z,0.4
2023-04-13T01:12:22.118Z,0.4
2023-04-13T01:13:30.410Z,0.4
2023-04-13T01:14:38.942Z,0.7
2023-04-13T01:15:47.287Z,0.7
2023-04-13T01:16:55.595Z,0.7
2023-04-13T01:18:04.118Z,0.5
2023-04-13T01:19:12.444Z,0.5
2023-04-13T01:20:20.768Z,0.5
2023-04-13T01:21:29.295Z,0.6
2023-04-13T01:22:37.625Z,0.6
2023-04-13T01:23:45.945Z,0.6
2023-04-13T01:24:54.476Z,0.8
2023-04-13T01:26:02.792Z,0.8
2023-04-13T01:27:11.116Z,0.8
2023-04-13T01:28:19.693Z,0.7
2023-04-13T01:29:27.978Z,0.7
2023-04-13T01:30:36.291Z,0.7
2023-04-13T01:31:44.884Z,0.7
2023-04-13T01:32:53.257Z,0.7
2023-04-13T01:34:01.536Z,0.7
2023-04-13T01:35:10.012Z,0.7
2023-04-13T01:36:18.332Z,0.7
2023-04-13T01:37:26.639Z,0.7
2023-04-13T01:38:35.173Z,0.7
2023-04-13T01:39:43.504Z,0.7
2023-04-13T01:40:51.833Z,0.7
2023-04-13T01:42:00.365Z,0.6
2023-04-13T01:43:08.714Z,0.6
2023-04-13T01:44:17.040Z,0.6
2023-04-13T01:45:25.550Z,0.7
2023-04-13T01:46:33.930Z,0.7
2023-04-13T01:47:42.216Z,0.7
2023-04-13T01:48:50.756Z,0.7
2023-04-13T01:49:59.060Z,0.7
2023-04-13T01:51:07.405Z,0.7
2023-04-13T01:52:15.944Z,0.9
2023-04-13T01:53:24.260Z,0.9
2023-04-13T01:54:32.579Z,0.9
2023-04-13T01:55:41.108Z,0.8
2023-04-13T01:56:49.440Z,0.8
2023-04-13T01:57:57.776Z,0.8
2023-04-13T01:59:06.296Z,0.8
2023-04-13T02:00:14.642Z,0.8
2023-04-13T02:01:22.999Z,0.8
2023-04-13T02:02:31.569Z,1
2023-04-13T02:03:39.898Z,1
2023-04-13T02:04:48.114Z,1
2023-04-13T02:05:56.635Z,0.8
2023-04-13T02:07:04.986Z,0.8
2023-04-13T02:08:13.306Z,0.8
2023-04-13T02:09:21.845Z,1
2023-04-13T02:10:30.176Z,1
2023-04-13T02:11:38.497Z,1
2023-04-13T02:12:47.034Z,0.7
2023-04-13T02:13:55.354Z,0.7
2023-04-13T02:15:03.699Z,0.7
2023-04-13T02:16:12.243Z,0.7
2023-04-13T02:17:20.547Z,0.7
2023-04-13T02:18:28.862Z,0.7
2023-04-13T02:19:37.396Z,1.1
2023-04-13T02:20:45.720Z,1.1
2023-04-13T02:21:54.028Z,1.1
2023-04-13T02:23:02.571Z,0.7
2023-04-13T02:24:10.883Z,0.7
2023-04-13T02:25:19.200Z,0.7
2023-04-13T02:26:27.812Z,0.9
2023-04-13T02:27:36.150Z,0.9
2023-04-13T02:28:44.454Z,0.9
2023-04-13T02:29:52.986Z,0.9
2023-04-13T02:31:01.313Z,0.9
2023-04-13T02:32:09.724Z,0.9
2023-04-13T02:33:18.209Z,0.7
2023-04-13T02:34:26.514Z,0.7
2023-04-13T02:35:35.625Z,0.7
2023-04-13T02:36:43.386Z,0.9
2023-04-13T02:37:51.707Z,0.9
2023-04-13T02:39:00.049Z,0.9
2023-04-13T02:40:08.560Z,0.9
2023-04-13T02:41:16.863Z,0.9
2023-04-13T02:42:25.194Z,0.9
2023-04-13T02:43:33.719Z,1
2023-04-13T02:44:42.046Z,1
2023-04-13T02:45:50.409Z,1
2023-04-13T02:46:58.893Z,1.3
2023-04-13T02:48:07.254Z,1.3
2023-04-13T02:49:15.547Z,1.3
2023-04-13T02:50:24.076Z,1.1
2023-04-13T02:51:32.418Z,1.1
2023-04-13T02:52:40.724Z,1.1
2023-04-13T02:53:49.253Z,1.2
2023-04-13T02:54:57.597Z,1.2
2023-04-13T02:56:05.920Z,1.2
2023-04-13T02:57:14.456Z,1.1
2023-04-13T02:58:22.783Z,1.1
2023-04-13T02:59:31.119Z,1.1
2023-04-13T03:00:39.642Z,1.2
2023-04-13T03:01:48.058Z,1.2
2023-04-13T03:02:56.352Z,1.2
2023-04-13T03:04:04.856Z,1.3
2023-04-13T03:05:13.152Z,1.3
2023-04-13T03:06:21.488Z,1.3
2023-04-13T03:07:30.004Z,1.3
2023-04-13T03:08:38.325Z,1.3
2023-04-13T03:09:46.633Z,1.3
2023-04-13T03:10:55.169Z,1.2
2023-04-13T03:12:03.509Z,1.2
2023-04-13T03:13:11.820Z,1.2
2023-04-13T03:14:20.345Z,2.1
2023-04-13T03:15:28.669Z,2.1
2023-04-13T03:16:37.035Z,2.1
2023-04-13T03:17:45.568Z,1.3
2023-04-13T03:18:53.860Z,1.3
2023-04-13T03:20:02.261Z,1.3
2023-04-13T03:21:10.712Z,1.2
2023-04-13T03:22:19.043Z,1.2
2023-04-13T03:23:27.368Z,1.2
2023-04-13T03:24:35.896Z,1.3
2023-04-13T03:25:44.215Z,1.3
2023-04-13T03:26:52.525Z,1.3
2023-04-13T03:28:01.044Z,1.3
2023-04-13T03:29:09.381Z,1.3
2023-04-13T03:30:17.712Z,1.3
2023-04-13T03:31:26.318Z,1.2
2023-04-13T03:32:34.641Z,1.2
2023-04-13T03:33:42.894Z,1.2
2023-04-13T03:34:51.441Z,1.3
2023-04-13T03:35:59.836Z,1.3
2023-04-13T03:37:08.082Z,1.3
2023-04-13T03:38:16.615Z,1.1
2023-04-13T03:39:24.933Z,1.1
2023-04-13T03:40:33.265Z,1.1
2023-04-13T03:41:41.806Z,1.1
2023-04-13T03:42:50.109Z,1.1
2023-04-13T03:43:58.617Z,1.1
2023-04-13T03:45:06.967Z,1.2
2023-04-13T03:46:15.323Z,1.2
2023-04-13T03:47:23.646Z,1.2
2023-04-13T03:48:32.153Z,1.1
2023-04-13T03:49:40.469Z,1.1
2023-04-13T03:50:48.789Z,1.1
2023-04-13T03:51:57.349Z,12.1
2023-04-13T03:53:05.647Z,12.1
2023-04-13T03:54:13.970Z,12.1
2023-04-13T03:55:22.517Z,4.7
2023-04-13T03:56:30.828Z,4.7
2023-04-13T03:57:39.152Z,4.7
2023-04-13T03:58:47.667Z,1.5
2023-04-13T03:59:55.985Z,1.5
2023-04-13T04:01:04.319Z,1.5
2023-04-13T04:02:12.886Z,1.2
2023-04-13T04:03:21.247Z,1.2
2023-04-13T04:04:29.501Z,1.2
2023-04-13T04:05:38.035Z,1.1
2023-04-13T04:06:46.354Z,1.1
2023-04-13T04:07:54.686Z,1.1
2023-04-13T04:09:03.189Z,1.3
2023-04-13T04:10:11.514Z,1.3
2023-04-13T04:11:19.845Z,1.3
2023-04-13T04:12:28.364Z,1.3
2023-04-13T04:13:36.691Z,1.3
2023-04-13T04:14:44.988Z,1.3
2023-04-13T04:15:53.550Z,1.3
2023-04-13T04:17:01.838Z,1.3
2023-04-13T04:18:10.194Z,1.3
2023-04-13T04:19:18.673Z,1.7
2023-04-13T04:20:27.004Z,1.7
2023-04-13T04:21:35.328Z,1.7
2023-04-13T04:22:43.859Z,1.7
2023-04-13T04:23:52.253Z,1.7
2023-04-13T04:25:00.522Z,1.7
2023-04-13T04:26:09.059Z,1.6
2023-04-13T04:27:17.386Z,1.6
2023-04-13T04:28:25.704Z,1.6
2023-04-13T04:29:34.391Z,1.6
2023-04-13T04:30:42.553Z,1.6
2023-04-13T04:31:50.924Z,1.6
2023-04-13T04:32:59.438Z,1.6
2023-04-13T04:34:07.756Z,1.6
2023-04-13T04:35:16.079Z,1.6
2023-04-13T04:36:24.602Z,1.5
2023-04-13T04:37:32.926Z,1.5
2023-04-13T04:38:41.245Z,1.5
2023-04-13T04:39:49.828Z,1.5
2023-04-13T04:40:58.132Z,1.5
2023-04-13T04:42:06.439Z,1.5
2023-04-13T04:43:14.955Z,1.4
2023-04-13T04:44:23.271Z,1.4
2023-04-13T04:45:31.725Z,1.4
2023-04-13T04:46:40.206Z,1.8
2023-04-13T04:47:48.532Z,1.8
2023-04-13T04:48:56.936Z,1.8
2023-04-13T04:50:05.461Z,1.4
2023-04-13T04:51:13.798Z,1.4
2023-04-13T04:52:23.985Z,1.4
2023-04-13T04:53:30.630Z,1.6
2023-04-13T04:54:38.936Z,1.6
2023-04-13T04:55:47.287Z,1.6
2023-04-13T04:56:55.778Z,1.5
2023-04-13T04:58:04.098Z,1.5
2023-04-13T04:59:12.429Z,1.5
2023-04-13T05:00:20.963Z,2.3
2023-04-13T05:01:29.297Z,2.3
2023-04-13T05:02:37.623Z,2.3
2023-04-13T05:03:46.119Z,7.9
2023-04-13T05:04:54.441Z,7.9
2023-04-13T05:06:02.740Z,7.9
2023-04-13T05:07:11.263Z,1.4
2023-04-13T05:08:19.572Z,1.4
2023-04-13T05:09:27.884Z,1.4
2023-04-13T05:10:36.454Z,15
2023-04-13T05:11:44.906Z,15
2023-04-13T05:12:53.099Z,15
2023-04-13T05:14:01.611Z,11
2023-04-13T05:15:09.953Z,11
2023-04-13T05:16:18.287Z,11
2023-04-13T05:17:26.819Z,8.1
2023-04-13T05:18:35.123Z,8.1
2023-04-13T05:19:43.436Z,8.1
2023-04-13T05:20:51.988Z,2
2023-04-13T05:22:00.309Z,2
2023-04-13T05:23:08.625Z,2
2023-04-13T05:24:17.139Z,2.3
2023-04-13T05:25:25.484Z,2.3
2023-04-13T05:26:33.778Z,2.3
2023-04-13T05:27:42.345Z,1.6
2023-04-13T05:28:50.647Z,1.6
2023-04-13T05:29:58.966Z,1.6
2023-04-13T05:31:07.529Z,2.6
2023-04-13T05:32:15.827Z,2.6
2023-04-13T05:33:24.145Z,2.6
2023-04-13T05:34:32.676Z,5
2023-04-13T05:35:40.991Z,5
2023-04-13T05:36:49.306Z,5
2023-04-13T05:37:57.832Z,4.5
2023-04-13T05:39:06.151Z,4.5
2023-04-13T05:40:14.482Z,4.5
2023-04-13T05:41:22.997Z,2.4
2023-04-13T05:42:31.330Z,2.4
2023-04-13T05:43:39.674Z,2.4
2023-04-13T05:44:48.201Z,20.6
2023-04-13T05:45:56.542Z,20.6
2023-04-13T05:47:04.843Z,20.6
2023-04-13T05:48:13.963Z,6.4
2023-04-13T05:49:23.406Z,6.4
2023-04-13T05:50:32.824Z,6.4
2023-04-13T05:51:41.342Z,6.8
2023-04-13T05:52:50.136Z,6.8
2023-04-13T05:53:58.451Z,6.8
2023-04-13T05:55:06.985Z,3.5
2023-04-13T05:56:15.313Z,3.5
2023-04-13T05:57:23.627Z,3.5
2023-04-13T05:58:32.169Z,2.6
2023-04-13T05:59:40.530Z,2.6
2023-04-13T06:00:48.853Z,2.6
2023-04-13T06:01:57.468Z,2.2
2023-04-13T06:03:05.810Z,2.2
2023-04-13T06:04:14.073Z,2.2
2023-04-13T06:05:22.609Z,1.1
2023-04-13T06:06:30.889Z,1.1
2023-04-13T06:07:39.211Z,1.1
2023-04-13T06:08:47.745Z,1.8
2023-04-13T06:09:56.082Z,1.8
2023-04-13T06:11:04.441Z,1.8
2023-04-13T06:12:12.954Z,1.1
2023-04-13T06:13:21.293Z,1.1
2023-04-13T06:14:29.622Z,1.1
2023-04-13T06:15:38.173Z,1.7
2023-04-13T06:16:46.573Z,1.7
2023-04-13T06:17:54.826Z,1.7
2023-04-13T06:19:03.330Z,1.8
2023-04-13T06:20:11.688Z,1.8
2023-04-13T06:21:20.014Z,1.8
2023-04-13T06:22:28.532Z,1.1
2023-04-13T06:23:36.871Z,1.1
2023-04-13T06:24:45.193Z,1.1
2023-04-13T06:25:53.716Z,0.8
2023-04-13T06:27:02.044Z,0.8
2023-04-13T06:28:10.370Z,0.8
2023-04-13T06:29:18.898Z,1.5
2023-04-13T06:30:27.239Z,1.5
2023-04-13T06:31:35.622Z,1.5
2023-04-13T06:32:44.282Z,1.4
2023-04-13T06:33:52.406Z,1.4
2023-04-13T06:35:00.731Z,1.4
2023-04-13T06:36:09.257Z,1.9
2023-04-13T06:37:17.561Z,1.9
2023-04-13T06:38:25.876Z,1.9
2023-04-13T06:39:34.403Z,1.4
2023-04-13T06:40:42.748Z,1.4
2023-04-13T06:41:51.058Z,1.4
2023-04-13T06:42:59.583Z,1.1
2023-04-13T06:44:07.912Z,1.1
2023-04-13T06:45:16.245Z,1.1
2023-04-13T06:46:24.832Z,1.5
2023-04-13T06:47:33.231Z,1.5
2023-04-13T06:48:41.432Z,1.5
2023-04-13T06:49:49.975Z,1.4
2023-04-13T06:50:58.304Z,1.4
2023-04-13T06:52:06.618Z,1.4
2023-04-13T06:53:15.140Z,0.9
2023-04-13T06:54:23.481Z,0.9
2023-04-13T06:55:31.794Z,0.9
2023-04-13T06:56:40.335Z,0.9
2023-04-13T06:57:48.661Z,0.9
2023-04-13T06:58:58.028Z,0.9
2023-04-13T07:00:08.373Z,0.8
2023-04-13T07:01:13.961Z,0.8
2023-04-13T07:02:22.251Z,0.8
2023-04-13T07:03:30.898Z,0.9
2023-04-13T07:04:39.075Z,0.9
2023-04-13T07:05:47.351Z,0.9
2023-04-13T07:06:55.878Z,3.6
2023-04-13T07:08:04.213Z,3.6
2023-04-13T07:09:12.529Z,3.6
2023-04-13T07:10:21.086Z,4.1
2023-04-13T07:11:29.388Z,4.1
2023-04-13T07:12:37.712Z,4.1
2023-04-13T07:13:46.241Z,1.2
2023-04-13T07:14:54.571Z,1.2
2023-04-13T07:16:02.967Z,1.2
2023-04-13T07:17:13.218Z,2
2023-04-13T07:18:19.764Z,2
2023-04-13T07:19:28.111Z,2
2023-04-13T07:20:36.616Z,6
2023-04-13T07:21:44.932Z,6
2023-04-13T07:22:53.263Z,6
2023-04-13T07:24:01.835Z,2.8
2023-04-13T07:25:10.117Z,2.8
2023-04-13T07:26:18.441Z,2.8
2023-04-13T07:27:26.976Z,4
2023-04-13T07:28:35.296Z,4
2023-04-13T07:29:43.639Z,4
2023-04-13T07:30:52.174Z,3.5
2023-04-13T07:32:00.722Z,3.5
2023-04-13T07:33:09.178Z,3.5
2023-04-13T07:34:17.674Z,2.4
2023-04-13T07:35:26.030Z,2.4
2023-04-13T07:36:34.314Z,2.4
2023-04-13T07:37:42.841Z,1.7
2023-04-13T07:38:51.187Z,1.7
2023-04-13T07:39:59.524Z,1.7
2023-04-13T07:41:08.048Z,2.5
2023-04-13T07:42:16.369Z,2.5
2023-04-13T07:43:24.691Z,2.5
2023-04-13T07:44:33.245Z,1.6
2023-04-13T07:45:41.570Z,1.6
2023-04-13T07:46:49.905Z,1.6
2023-04-13T07:47:58.459Z,1.3
2023-04-13T07:49:06.755Z,1.3
2023-04-13T07:50:15.089Z,1.3
2023-04-13T07:51:23.646Z,1.5
2023-04-13T07:52:31.961Z,1.5
2023-04-13T07:53:40.282Z,1.5
2023-04-13T07:54:48.821Z,1.6
2023-04-13T07:55:57.142Z,1.6
2023-04-13T07:57:05.492Z,1.6
2023-04-13T07:58:14.039Z,1.4
2023-04-13T07:59:23.519Z,1.4
2023-04-13T08:00:30.700Z,1.4
2023-04-13T08:01:39.258Z,1.2
2023-04-13T08:02:47.763Z,1.2
2023-04-13T08:03:56.088Z,1.2
2023-04-13T08:05:04.541Z,1
2023-04-13T08:06:12.784Z,1
2023-04-13T08:07:21.149Z,1
2023-04-13T08:08:29.659Z,1.1
2023-04-13T08:09:37.977Z,1.1
2023-04-13T08:10:46.295Z,1.1
2023-04-13T08:11:54.836Z,1.7
2023-04-13T08:13:03.170Z,1.7
2023-04-13T08:14:11.477Z,1.7
2023-04-13T08:15:20.003Z,2
2023-04-13T08:16:28.336Z,2
2023-04-13T08:17:36.652Z,2
2023-04-13T08:18:45.199Z,2.6
2023-04-13T08:19:53.519Z,2.6
2023-04-13T08:21:01.843Z,2.6
2023-04-13T08:22:10.357Z,1.9
2023-04-13T08:23:18.728Z,1.9
2023-04-13T08:24:27.025Z,1.9
2023-04-13T08:25:35.549Z,2.5
2023-04-13T08:26:44.489Z,2.5
2023-04-13T08:27:52.799Z,2.5
2023-04-13T08:29:01.465Z,1.1
2023-04-13T08:30:09.652Z,1.1
2023-04-13T08:31:17.973Z,1.1
2023-04-13T08:32:26.529Z,1.4
2023-04-13T08:33:34.807Z,1.4
2023-04-13T08:34:43.128Z,1.4
2023-04-13T08:35:51.658Z,1.6
2023-04-13T08:37:00.007Z,1.6
2023-04-13T08:38:08.325Z,1.6
2023-04-13T08:39:16.873Z,2.2
2023-04-13T08:40:25.173Z,2.2
2023-04-13T08:41:34.649Z,2.2
2023-04-13T08:42:42.015Z,2
2023-04-13T08:43:50.344Z,2
2023-04-13T08:44:58.691Z,2
2023-04-13T08:46:07.245Z,1.9
2023-04-13T08:47:15.502Z,1.9
2023-04-13T08:48:23.833Z,1.9
2023-04-13T08:49:32.436Z,1.5
2023-04-13T08:50:40.677Z,1.5
2023-04-13T08:51:48.990Z,1.5
2023-04-13T08:52:57.535Z,1.2
2023-04-13T08:54:06.221Z,1.2
2023-04-13T08:55:14.356Z,1.2
2023-04-13T08:56:28.238Z,0.9
2023-04-13T08:57:31.102Z,0.9
2023-04-13T08:58:39.415Z,0.9
2023-04-13T08:59:47.936Z,1.3
2023-04-13T09:00:56.265Z,1.3
2023-04-13T09:02:04.688Z,1.3
2023-04-13T09:03:14.268Z,0.9
2023-04-13T09:04:21.592Z,0.9
2023-04-13T09:05:29.736Z,0.9
2023-04-13T09:06:38.251Z,1.3
2023-04-13T09:07:46.578Z,1.3
2023-04-13T09:08:54.942Z,1.3
2023-04-13T09:10:03.448Z,1.6
2023-04-13T09:11:11.792Z,1.6
2023-04-13T09:12:20.099Z,1.6
2023-04-13T09:13:28.622Z,1.1
2023-04-13T09:14:36.943Z,1.1
2023-04-13T09:15:45.272Z,1.1
2023-04-13T09:16:53.844Z,1.5
2023-04-13T09:18:02.132Z,1.5
2023-04-13T09:19:10.427Z,1.5
2023-04-13T09:20:18.953Z,6.6
2023-04-13T09:21:27.275Z,6.6
2023-04-13T09:22:35.594Z,6.6
2023-04-13T09:23:44.130Z,6.9
2023-04-13T09:24:52.440Z,6.9
2023-04-13T09:26:00.748Z,6.9
2023-04-13T09:27:09.298Z,2.3
2023-04-13T09:28:17.602Z,2.3
2023-04-13T09:29:25.993Z,2.3
2023-04-13T09:30:34.507Z,1.4
2023-04-13T09:31:45.034Z,1.4
2023-04-13T09:32:51.231Z,1.4
2023-04-13T09:33:59.905Z,1.2
2023-04-13T09:35:08.115Z,1.2
2023-04-13T09:36:16.448Z,1.2
2023-04-13T09:37:24.991Z,1.8
2023-04-13T09:38:33.329Z,1.8
2023-04-13T09:39:41.675Z,1.8
2023-04-13T09:40:50.201Z,2.7
2023-04-13T09:41:58.541Z,2.7
2023-04-13T09:43:06.916Z,2.7
2023-04-13T09:44:15.393Z,1.8
2023-04-13T09:45:23.738Z,1.8
2023-04-13T09:46:32.085Z,1.8
2023-04-13T09:47:40.704Z,1.2
2023-04-13T09:48:48.935Z,1.2
2023-04-13T09:49:57.297Z,1.2
2023-04-13T09:51:05.842Z,1.3
2023-04-13T09:52:14.149Z,1.3
2023-04-13T09:53:22.531Z,1.3
2023-04-13T09:54:31.110Z,1.4
2023-04-13T09:55:39.428Z,1.4
2023-04-13T09:56:47.780Z,1.4
2023-04-13T09:57:56.323Z,1.2
2023-04-13T09:59:04.684Z,1.2
2023-04-13T10:00:13.017Z,1.2
2023-04-13T10:01:21.564Z,1.2
2023-04-13T10:02:30.032Z,1.2
2023-04-13T10:03:38.231Z,1.2
2023-04-13T10:04:46.745Z,1.2
2023-04-13T10:05:59.859Z,1.2
2023-04-13T10:07:03.416Z,1.2
2023-04-13T10:08:11.953Z,1.4
2023-04-13T10:09:20.270Z,1.4
2023-04-13T10:10:28.611Z,1.4
2023-04-13T10:11:37.147Z,1.5
2023-04-13T10:12:45.492Z,1.5
2023-04-13T10:13:53.815Z,1.5
2023-04-13T10:15:02.376Z,1.4
2023-04-13T10:16:10.711Z,1.4
2023-04-13T10:17:19.096Z,1.4
2023-04-13T10:18:27.720Z,1.1
2023-04-13T10:19:35.912Z,1.1
2023-04-13T10:20:44.238Z,1.1
2023-04-13T10:21:52.784Z,2.4
2023-04-13T10:23:01.109Z,2.4
2023-04-13T10:24:12.608Z,2.4
2023-04-13T10:25:29.449Z,2.9
2023-04-13T10:26:26.294Z,2.9
2023-04-13T10:27:34.650Z,2.9
2023-04-13T10:28:43.187Z,1.6
2023-04-13T10:29:51.497Z,1.6
2023-04-13T10:30:59.881Z,1.6
2023-04-13T10:32:08.472Z,1.6
2023-04-13T10:33:16.765Z,1.6
2023-04-13T10:34:25.146Z,1.6
2023-04-13T10:35:33.628Z,1.3
2023-04-13T10:36:41.981Z,1.3
2023-04-13T10:37:50.303Z,1.3
2023-04-13T10:38:59.025Z,1.2
2023-04-13T10:40:07.186Z,1.2
2023-04-13T10:41:15.506Z,1.2
2023-04-13T10:42:24.039Z,1.4
2023-04-13T10:43:32.380Z,1.4
2023-04-13T10:44:40.705Z,1.4
2023-04-13T10:45:49.254Z,1.2
2023-04-13T10:46:57.646Z,1.2
2023-04-13T10:48:06.025Z,1.2
2023-04-13T10:49:14.467Z,1.1
2023-04-13T10:50:22.898Z,1.1
2023-04-13T10:51:31.146Z,1.1
2023-04-13T10:52:39.722Z,11.7
2023-04-13T10:53:48.082Z,11.7
2023-04-13T10:54:56.408Z,11.7
2023-04-13T10:56:04.967Z,5.1
2023-04-13T10:57:13.315Z,5.1
2023-04-13T10:58:21.631Z,5.1
2023-04-13T10:59:30.198Z,3.5
2023-04-13T11:00:45.963Z,3.5
2023-04-13T11:01:46.878Z,3.5
2023-04-13T11:02:55.542Z,1.5
2023-04-13T11:04:05.775Z,1.5
2023-04-13T11:05:12.076Z,1.5
2023-04-13T11:06:20.665Z,1.1
2023-04-13T11:07:29.007Z,1.1
2023-04-13T11:08:37.359Z,1.1
2023-04-13T11:09:45.893Z,1.6
2023-04-13T11:10:54.232Z,1.6
2023-04-13T11:12:02.550Z,1.6
2023-04-13T11:13:11.087Z,1.6
2023-04-13T11:14:19.432Z,1.6
2023-04-13T11:15:27.795Z,1.6
2023-04-13T11:16:36.420Z,1.1
2023-04-13T11:17:44.712Z,1.1
2023-04-13T11:18:53.066Z,1.1
2023-04-13T11:20:01.649Z,0.9
2023-04-13T11:21:09.944Z,0.9
2023-04-13T11:22:18.286Z,0.9
2023-04-13T11:23:26.812Z,1.3
2023-04-13T11:24:35.160Z,1.3
2023-04-13T11:25:43.508Z,1.3
2023-04-13T11:26:52.063Z,1.4
2023-04-13T11:28:00.391Z,1.4
2023-04-13T11:29:08.745Z,1.4
2023-04-13T11:30:17.274Z,1.6
2023-04-13T11:31:25.693Z,1.6
2023-04-13T11:32:34.037Z,1.6
2023-04-13T11:33:42.541Z,1.2
2023-04-13T11:34:50.889Z,1.2
2023-04-13T11:35:59.194Z,1.2
2023-04-13T11:37:07.741Z,1.1
2023-04-13T11:38:16.077Z,1.1
2023-04-13T11:39:24.462Z,1.1
2023-04-13T11:40:33.028Z,1.8
2023-04-13T11:41:41.362Z,1.8
2023-04-13T11:42:49.702Z,1.8
2023-04-13T11:43:58.245Z,1.2
2023-04-13T11:45:06.552Z,1.2
2023-04-13T11:46:14.930Z,1.2
2023-04-13T11:47:23.553Z,1.1
2023-04-13T11:48:31.846Z,1.1
2023-04-13T11:49:40.188Z,1.1
2023-04-13T11:50:48.816Z,1.4
2023-04-13T11:51:57.121Z,1.4
2023-04-13T11:53:05.519Z,1.4
2023-04-13T11:54:14.087Z,1.1
2023-04-13T11:55:23.980Z,1.1
2023-04-13T11:56:30.746Z,1.1
2023-04-13T11:57:39.339Z,0.9
2023-04-13T11:58:47.675Z,0.9
2023-04-13T11:59:56.022Z,0.9
2023-04-13T12:01:06.142Z,1.2
2023-04-13T12:02:21.705Z,1.2
2023-04-13T12:04:29.920Z,2
2023-04-13T12:05:38.276Z,2
2023-04-13T12:06:46.661Z,2
2023-04-13T12:07:55.100Z,1.3
2023-04-13T12:09:09.747Z,1.3
2023-04-13T12:10:20.499Z,1.3
2023-04-13T12:12:51.013Z,1
2023-04-13T12:13:37.980Z,1
2023-04-13T12:14:54.474Z,1
2023-04-13T12:17:07.812Z,1
2023-04-13T12:18:15.028Z,1.2
2023-04-13T12:19:19.609Z,1.2
2023-04-13T12:20:27.408Z,1.2
2023-04-13T12:21:36.368Z,1
2023-04-13T12:22:52.176Z,1
2023-04-13T12:23:52.878Z,1
2023-04-13T12:25:02.164Z,1.3
2023-04-13T12:26:32.582Z,1.3
2023-04-13T12:27:19.059Z,1.3
2023-04-13T12:28:26.339Z,1
2023-04-13T12:29:34.671Z,1
2023-04-13T12:30:43.021Z,1
2023-04-13T12:31:51.593Z,1.3
2023-04-13T12:32:59.923Z,1.3
2023-04-13T12:34:08.436Z,1.3
2023-04-13T12:35:16.813Z,1.1
2023-04-13T12:36:25.170Z,1.1
2023-04-13T12:37:33.597Z,1.1
2023-04-13T12:38:42.137Z,0.7
2023-04-13T12:39:50.499Z,0.7
2023-04-13T12:40:58.866Z,0.7
2023-04-13T12:42:07.460Z,1
2023-04-13T12:43:15.809Z,1
2023-04-13T12:44:24.170Z,1
2023-04-13T12:45:32.723Z,1
2023-04-13T12:46:41.107Z,1
2023-04-13T12:47:49.456Z,1
2023-04-13T12:48:58.307Z,1.1
2023-04-13T12:50:06.365Z,1.1
2023-04-13T12:51:14.728Z,1.1
2023-04-13T12:52:23.283Z,1
2023-04-13T12:53:31.637Z,1
2023-04-13T12:54:40.007Z,1
2023-04-13T12:55:48.549Z,0.7
2023-04-13T12:56:56.923Z,0.7
2023-04-13T12:58:05.378Z,0.7
2023-04-13T12:59:13.975Z,1.3
2023-04-13T13:00:22.318Z,1.3
2023-04-13T13:01:30.671Z,1.3
2023-04-13T13:02:39.370Z,1.2
2023-04-13T13:03:47.649Z,1.2
2023-04-13T13:04:56.035Z,1.2
2023-04-13T13:06:04.506Z,0.8
2023-04-13T13:07:12.837Z,0.8
2023-04-13T13:08:21.196Z,0.8
2023-04-13T13:09:29.770Z,1.2
2023-04-13T13:10:38.168Z,1.2
2023-04-13T13:11:46.482Z,1.2
2023-04-13T13:12:55.037Z,1.3
2023-04-13T13:14:03.391Z,1.3
2023-04-13T13:15:11.746Z,1.3
2023-04-13T13:16:20.352Z,1.3
2023-04-13T13:17:28.729Z,1.3
2023-04-13T13:18:49.507Z,1.3
2023-04-13T13:19:46.040Z,1.5
2023-04-13T13:20:54.394Z,1.5
2023-04-13T13:22:02.763Z,1.5
2023-04-13T13:23:11.397Z,1.2
2023-04-13T13:24:19.780Z,1.2
2023-04-13T13:25:28.126Z,1.2
2023-04-13T13:26:53.098Z,1.6
2023-04-13T13:28:53.450Z,1.6
2023-04-13T13:30:02.096Z,2.2
2023-04-13T13:31:10.390Z,2.2
2023-04-13T13:32:20.201Z,2.2
2023-04-13T13:33:27.308Z,2.5
2023-04-13T13:34:35.710Z,2.5
2023-04-13T13:35:44.037Z,2.5
2023-04-13T13:36:52.670Z,1.4
2023-04-13T13:38:00.987Z,1.4
2023-04-13T13:39:09.365Z,1.4
2023-04-13T13:40:17.944Z,1.7
2023-04-13T13:41:26.284Z,1.7
2023-04-13T13:42:44.340Z,1.7
2023-04-13T13:43:43.214Z,2
2023-04-13T13:44:51.619Z,2
2023-04-13T13:46:00.006Z,2
2023-04-13T13:47:08.511Z,2.2
2023-04-13T13:48:16.882Z,2.2
2023-04-13T13:49:25.225Z,2.2
2023-04-13T13:50:33.788Z,1.3
2023-04-13T13:51:42.166Z,1.3
2023-04-13T13:53:02.042Z,1.3
2023-04-13T13:53:59.041Z,1.5
2023-04-13T13:55:07.449Z,1.5
2023-04-13T13:56:15.745Z,1.5
2023-04-13T13:57:24.285Z,1.2
2023-04-13T13:58:32.674Z,1.2
2023-04-13T13:59:40.986Z,1.2
2023-04-13T14:00:49.561Z,1.1
2023-04-13T14:01:58.022Z,1.1
2023-04-13T14:03:06.443Z,1.1
2023-04-13T14:04:14.934Z,1.3
2023-04-13T14:05:23.218Z,1.3
2023-04-13T14:06:31.546Z,1.3
2023-04-13T14:07:40.118Z,1.5
2023-04-13T14:08:48.495Z,1.5
2023-04-13T14:09:56.830Z,1.5
2023-04-13T14:11:05.390Z,1.8
2023-04-13T14:12:13.734Z,1.8
2023-04-13T14:13:22.099Z,1.8
2023-04-13T14:14:30.711Z,1.3
2023-04-13T14:15:39.051Z,1.3
2023-04-13T14:16:47.388Z,1.3
2023-04-13T14:19:04.425Z,1.1
2023-04-13T14:20:12.680Z,1.1
2023-04-13T14:21:21.235Z,1.4
2023-04-13T14:22:29.639Z,1.4
2023-04-13T14:23:37.990Z,1.4
2023-04-13T14:24:46.572Z,1.1
2023-04-13T14:25:54.915Z,1.1
2023-04-13T14:27:03.253Z,1.1
2023-04-13T14:28:11.841Z,1.4
2023-04-13T14:29:20.612Z,1.4
2023-04-13T14:30:29.010Z,1.4
2023-04-13T14:31:37.548Z,1.6
2023-04-13T14:32:45.924Z,1.6
2023-04-13T14:33:54.267Z,1.6
2023-04-13T14:35:02.830Z,1.4
2023-04-13T14:36:11.156Z,1.4
2023-04-13T14:37:19.513Z,1.4
2023-04-13T14:38:28.077Z,1.3
2023-04-13T14:39:36.418Z,1.3
2023-04-13T14:40:44.780Z,1.3
2023-04-13T14:41:54.129Z,1.5
2023-04-13T14:43:01.656Z,1.5
2023-04-13T14:44:09.999Z,1.5
2023-04-13T14:45:18.586Z,1.9
2023-04-13T14:46:27.020Z,1.9
2023-04-13T14:47:35.273Z,1.9
2023-04-13T14:48:43.814Z,3
2023-04-13T14:49:52.188Z,3
2023-04-13T14:51:00.520Z,3
2023-04-13T14:52:09.070Z,4.7
2023-04-13T14:53:17.492Z,4.7
2023-04-13T14:54:25.872Z,4.7
2023-04-13T14:55:34.462Z,2.1
2023-04-13T14:56:42.840Z,2.1
2023-04-13T14:57:51.183Z,2.1
2023-04-13T14:59:00.044Z,1.8
2023-04-13T15:00:08.078Z,1.8
2023-04-13T15:01:16.420Z,1.8
2023-04-13T15:02:25.142Z,1.7
2023-04-13T15:03:33.502Z,1.7
2023-04-13T15:04:42.045Z,1.7
2023-04-13T15:05:50.444Z,3.2
2023-04-13T15:38:39.070Z,0
2023-04-13T15:39:47.423Z,0
2023-04-13T15:40:55.803Z,0
2023-04-13T15:42:04.407Z,0.8
2023-04-13T15:43:12.848Z,0.8
2023-04-13T15:44:21.247Z,0.8
2023-04-13T15:45:29.825Z,0.7
2023-04-13T15:46:38.250Z,0.7
2023-04-13T15:47:46.668Z,0.7
2023-04-13T15:48:55.272Z,0.4
2023-04-13T15:50:03.626Z,0.4
2023-04-13T15:51:12.000Z,0.4
2023-04-13T15:52:20.604Z,1.4
2023-04-13T15:53:29.014Z,1.4
2023-04-13T15:54:37.427Z,1.4
2023-04-13T15:55:45.988Z,1.6
2023-04-13T15:56:54.368Z,1.6
2023-04-13T15:58:02.772Z,1.6
2023-04-13T15:59:11.341Z,0.8
2023-04-13T16:00:19.729Z,0.8
2023-04-13T16:01:28.202Z,0.8
2023-04-13T16:02:36.931Z,0.6
2023-04-13T16:03:45.312Z,0.6
2023-04-13T16:04:53.664Z,0.6
2023-04-13T16:06:02.144Z,0.9
2023-04-13T16:07:13.989Z,0.9
2023-04-13T16:08:18.925Z,0.9
2023-04-13T16:09:27.510Z,1
2023-04-13T16:10:35.929Z,1
2023-04-13T16:11:44.307Z,1
2023-04-13T16:12:52.889Z,0.8
2023-04-13T16:14:01.297Z,0.8
2023-04-13T16:15:09.698Z,0.8
2023-04-13T16:16:18.467Z,1
2023-04-13T16:17:26.748Z,1
2023-04-13T16:18:35.099Z,1
2023-04-13T16:19:43.691Z,0.7
2023-04-13T16:20:52.093Z,0.7
2023-04-13T16:22:00.484Z,0.7
2023-04-13T16:23:09.073Z,0.8
2023-04-13T16:24:17.464Z,0.8